createdAt,value
2018-07-27T00:02:14.304Z,21.80
2018-07-27T00:04:44.164Z,21.70
2018-07-27T00:07:13.962Z,21.70
2018-07-27T00:09:43.814Z,21.70
2018-07-27T00:12:13.662Z,21.70
2018-07-27T00:14:43.519Z,21.60
2018-07-27T00:17:13.358Z,21.60
2018-07-27T00:19:43.199Z,21.60
2018-07-27T00:22:13.108Z,21.50
2018-07-27T00:24:42.955Z,21.50
2018-07-27T00:27:13.142Z,21.50
2018-07-27T00:29:42.970Z,21.50
2018-07-27T00:32:13.158Z,21.40
2018-07-27T00:34:43.003Z,21.40
2018-07-27T00:37:12.839Z,21.30
2018-07-27T00:39:42.654Z,21.30
2018-07-27T00:42:12.490Z,21.20
2018-07-27T00:44:42.326Z,21.30
2018-07-27T00:47:12.178Z,21.20
2018-07-27T00:49:41.994Z,21.20
2018-07-27T00:52:11.838Z,21.10
2018-07-27T00:54:41.638Z,21.10
2018-07-27T00:57:11.779Z,21.10
2018-07-27T00:59:41.903Z,21.00
2018-07-27T01:02:11.727Z,21.00
2018-07-27T01:04:41.578Z,20.90
2018-07-27T01:07:11.682Z,20.90
2018-07-27T01:09:41.822Z,20.90
2018-07-27T01:12:12.303Z,20.80
2018-07-27T01:14:42.159Z,20.70
2018-07-27T01:17:12.254Z,20.70
2018-07-27T01:19:42.394Z,20.70
2018-07-27T01:22:12.842Z,20.70
2018-07-27T01:24:43.090Z,20.70
2018-07-27T01:27:13.216Z,20.60
2018-07-27T01:29:43.362Z,20.60
2018-07-27T01:32:13.488Z,20.60
2018-07-27T01:34:43.615Z,20.50
2018-07-27T01:37:13.742Z,20.50
2018-07-27T01:39:43.843Z,20.50
2018-07-27T01:42:13.978Z,20.40
2018-07-27T01:44:44.101Z,20.40
2018-07-27T01:47:14.238Z,20.40
2018-07-27T01:49:44.337Z,20.30
2018-07-27T01:52:14.466Z,20.30
2018-07-27T01:54:44.590Z,20.20
2018-07-27T01:57:14.698Z,20.20
2018-07-27T01:59:44.835Z,20.20
2018-07-27T02:02:14.935Z,20.20
2018-07-27T02:04:45.055Z,20.10
2018-07-27T02:07:15.500Z,20.10
2018-07-27T02:09:45.618Z,20.10
2018-07-27T02:12:15.738Z,20.10
2018-07-27T02:14:45.897Z,20.10
2018-07-27T02:17:16.206Z,20.00
2018-07-27T02:19:46.310Z,20.00
2018-07-27T02:22:16.455Z,20.00
2018-07-27T02:24:46.911Z,20.00
2018-07-27T02:27:17.040Z,20.00
2018-07-27T02:29:47.146Z,19.90
2018-07-27T02:32:17.294Z,19.90
2018-07-27T02:34:47.476Z,19.90
2018-07-27T02:37:18.183Z,19.80
2018-07-27T02:39:48.309Z,19.80
2018-07-27T02:42:18.761Z,19.80
2018-07-27T02:44:48.891Z,19.80
2018-07-27T02:47:18.991Z,19.70
2018-07-27T02:49:49.126Z,19.70
2018-07-27T02:52:19.235Z,19.70
2018-07-27T02:54:49.370Z,19.70
2018-07-27T02:57:19.507Z,19.70
2018-07-27T02:59:49.643Z,19.60
2018-07-27T03:02:19.774Z,19.60
2018-07-27T03:04:49.895Z,19.60
2018-07-27T03:07:20.029Z,19.50
2018-07-27T03:09:50.209Z,19.50
2018-07-27T03:12:20.458Z,19.50
2018-07-27T03:14:50.575Z,19.40
2018-07-27T03:17:20.894Z,19.40
2018-07-27T03:19:51.003Z,19.40
2018-07-27T03:22:21.130Z,19.40
2018-07-27T03:24:51.390Z,19.30
2018-07-27T03:27:22.080Z,19.30
2018-07-27T03:29:52.182Z,19.30
2018-07-27T03:32:22.702Z,19.30
2018-07-27T03:34:53.186Z,19.30
2018-07-27T03:37:23.638Z,19.20
2018-07-27T03:39:54.091Z,19.20
2018-07-27T03:42:24.836Z,19.20
2018-07-27T03:44:55.298Z,19.20
2018-07-27T03:47:25.423Z,19.10
2018-07-27T03:49:55.542Z,19.10
2018-07-27T03:52:25.670Z,19.10
2018-07-27T03:54:55.794Z,19.10
2018-07-27T03:57:25.908Z,19.10
2018-07-27T03:59:56.023Z,19.00
2018-07-27T04:02:26.178Z,19.00
2018-07-27T04:04:56.309Z,19.00
2018-07-27T04:07:26.468Z,19.00
2018-07-27T04:09:57.087Z,19.00
2018-07-27T04:12:27.262Z,19.00
2018-07-27T04:14:57.397Z,18.90
2018-07-27T04:17:27.736Z,19.00
2018-07-27T04:19:57.862Z,18.90
2018-07-27T04:22:28.014Z,18.90
2018-07-27T04:24:58.314Z,18.90
2018-07-27T04:27:28.478Z,18.80
2018-07-27T04:29:58.591Z,18.80
2018-07-27T04:32:28.702Z,18.80
2018-07-27T04:34:58.822Z,18.80
2018-07-27T04:37:28.921Z,18.80
2018-07-27T04:39:59.050Z,18.80
2018-07-27T04:42:29.150Z,18.80
2018-07-27T04:44:59.307Z,18.80
2018-07-27T04:47:29.434Z,18.80
2018-07-27T04:49:59.565Z,18.80
2018-07-27T04:52:30.184Z,18.90
2018-07-27T04:55:00.317Z,18.90
2018-07-27T04:57:30.423Z,18.90
2018-07-27T05:00:00.554Z,18.90
2018-07-27T05:02:30.790Z,18.90
2018-07-27T05:05:00.921Z,18.90
2018-07-27T05:07:31.214Z,18.90
2018-07-27T05:10:05.918Z,19.00
2018-07-27T05:12:36.058Z,19.00
2018-07-27T05:15:06.206Z,19.00
2018-07-27T05:17:36.342Z,19.10
2018-07-27T05:20:06.634Z,19.10
2018-07-27T05:22:37.150Z,19.20
2018-07-27T05:25:07.290Z,19.20
2018-07-27T05:27:37.418Z,19.30
2018-07-27T05:30:07.518Z,19.40
2018-07-27T05:32:37.667Z,19.40
2018-07-27T05:35:07.778Z,19.50
2018-07-27T05:37:37.946Z,19.60
2018-07-27T05:40:08.778Z,19.60
2018-07-27T05:42:38.986Z,19.70
2018-07-27T05:45:09.491Z,19.80
2018-07-27T05:47:39.806Z,19.90
2018-07-27T05:50:09.919Z,20.00
2018-07-27T05:52:40.104Z,20.00
2018-07-27T05:55:10.402Z,20.10
2018-07-27T05:57:40.569Z,20.20
2018-07-27T06:00:10.734Z,20.30
2018-07-27T06:02:41.196Z,20.40
2018-07-27T06:05:11.855Z,20.50
2018-07-27T06:07:42.148Z,20.60
2018-07-27T06:10:12.628Z,20.80
2018-07-27T06:12:42.730Z,20.90
2018-07-27T06:15:12.918Z,21.00
2018-07-27T06:17:43.223Z,21.20
2018-07-27T06:20:13.584Z,21.40
2018-07-27T06:22:43.670Z,21.60
2018-07-27T06:25:13.819Z,21.70
2018-07-27T06:27:44.579Z,21.90
2018-07-27T06:30:15.059Z,22.10
2018-07-27T06:32:45.186Z,22.30
2018-07-27T06:35:15.051Z,22.50
2018-07-27T06:37:44.860Z,22.80
2018-07-27T06:40:14.711Z,23.00
2018-07-27T06:42:44.870Z,23.20
2018-07-27T06:45:14.824Z,23.40
2018-07-27T06:47:44.974Z,23.50
2018-07-27T06:50:15.139Z,23.60
2018-07-27T06:52:45.363Z,23.70
2018-07-27T06:55:15.182Z,23.80
2018-07-27T06:57:45.450Z,23.90
2018-07-27T07:00:15.278Z,24.10
2018-07-27T07:02:45.148Z,24.20
2018-07-27T07:05:14.968Z,24.30
2018-07-27T07:07:44.815Z,24.50
2018-07-27T07:10:14.666Z,24.60
2018-07-27T07:12:44.519Z,24.70
2018-07-27T07:15:14.342Z,24.80
2018-07-27T07:17:44.194Z,24.90
2018-07-27T07:20:14.351Z,25.00
2018-07-27T07:22:44.194Z,25.20
2018-07-27T07:25:14.129Z,25.20
2018-07-27T07:27:44.034Z,25.30
2018-07-27T07:30:14.236Z,25.40
2018-07-27T07:32:44.494Z,25.50
2018-07-27T07:35:14.326Z,25.60
2018-07-27T07:37:44.163Z,25.60
2018-07-27T07:40:14.011Z,25.70
2018-07-27T07:42:43.846Z,25.80
2018-07-27T07:45:13.739Z,26.00
2018-07-27T07:47:43.590Z,26.20
2018-07-27T07:50:13.459Z,26.30
2018-07-27T07:55:19.451Z,26.50
2018-07-27T07:57:49.291Z,26.60
2018-07-27T08:00:19.162Z,26.70
2018-07-27T08:02:49.007Z,26.80
2018-07-27T08:05:19.194Z,27.00
2018-07-27T08:07:49.042Z,27.10
2018-07-27T08:10:18.862Z,27.20
2018-07-27T08:12:48.694Z,27.30
2018-07-27T08:15:18.523Z,27.40
2018-07-27T08:17:48.416Z,27.50
2018-07-27T08:20:18.231Z,27.60
2018-07-27T08:22:48.071Z,27.60
2018-07-27T08:25:18.626Z,27.80
2018-07-27T08:27:58.418Z,27.80
2018-07-27T08:30:28.222Z,27.90
2018-07-27T08:32:58.098Z,28.00
2018-07-27T08:35:27.902Z,28.10
2018-07-27T08:37:57.758Z,28.10
2018-07-27T08:40:27.578Z,28.20
2018-07-27T08:42:57.408Z,28.20
2018-07-27T08:45:27.254Z,28.30
2018-07-27T08:47:57.095Z,28.50
2018-07-27T08:50:26.938Z,28.70
2018-07-27T08:52:56.746Z,28.90
2018-07-27T08:55:26.586Z,29.00
2018-07-27T08:57:56.410Z,29.20
2018-07-27T09:00:37.622Z,29.30
2018-07-27T09:03:07.457Z,29.30
2018-07-27T09:05:37.294Z,29.40
2018-07-27T09:08:07.189Z,29.40
2018-07-27T09:10:36.991Z,29.50
2018-07-27T09:13:07.175Z,29.50
2018-07-27T09:15:37.002Z,29.60
2018-07-27T09:18:06.852Z,29.70
2018-07-27T09:20:36.686Z,29.80
2018-07-27T09:23:06.604Z,29.80
2018-07-27T09:25:36.463Z,29.90
2018-07-27T09:28:06.286Z,30.00
2018-07-27T09:30:36.130Z,30.00
2018-07-27T09:33:06.106Z,30.10
2018-07-27T09:35:36.039Z,30.20
2018-07-27T09:38:06.779Z,30.30
2018-07-27T09:40:36.649Z,30.30
2018-07-27T09:43:06.687Z,30.50
2018-07-27T09:45:36.526Z,30.70
2018-07-27T09:48:06.342Z,30.70
2018-07-27T09:50:36.531Z,30.70
2018-07-27T09:53:06.486Z,30.80
2018-07-27T09:55:36.326Z,30.80
2018-07-27T09:58:06.374Z,30.90
2018-07-27T10:00:41.914Z,30.90
2018-07-27T10:03:11.776Z,30.90
2018-07-27T10:05:41.598Z,30.90
2018-07-27T10:08:12.007Z,30.90
2018-07-27T10:10:42.163Z,31.00
2018-07-27T10:13:12.032Z,31.00
2018-07-27T10:15:42.088Z,31.10
2018-07-27T10:18:11.918Z,31.20
2018-07-27T10:20:41.794Z,31.40
2018-07-27T10:23:11.615Z,31.50
2018-07-27T10:25:41.470Z,31.60
2018-07-27T10:28:11.281Z,31.60
2018-07-27T10:30:41.138Z,31.70
2018-07-27T10:33:10.981Z,31.70
2018-07-27T10:35:41.938Z,31.90
2018-07-27T10:38:11.758Z,32.00
2018-07-27T10:40:41.615Z,32.10
2018-07-27T10:43:11.435Z,32.20
2018-07-27T10:45:41.738Z,32.30
2018-07-27T10:48:11.579Z,32.30
2018-07-27T10:50:41.859Z,32.40
2018-07-27T10:53:11.759Z,32.50
2018-07-27T10:55:41.795Z,32.60
2018-07-27T10:58:11.631Z,32.60
2018-07-27T11:00:41.438Z,32.60
2018-07-27T11:03:11.294Z,32.60
2018-07-27T11:05:41.110Z,32.60
2018-07-27T11:08:10.958Z,32.70
2018-07-27T11:10:40.774Z,32.80
2018-07-27T11:13:10.642Z,32.80
2018-07-27T11:15:40.795Z,32.90
2018-07-27T11:18:10.659Z,32.90
2018-07-27T11:20:40.474Z,32.90
2018-07-27T11:23:10.510Z,33.00
2018-07-27T11:25:40.348Z,33.00
2018-07-27T11:28:10.350Z,33.10
2018-07-27T11:30:40.166Z,33.00
2018-07-27T11:33:10.019Z,33.10
2018-07-27T11:35:39.849Z,33.10
2018-07-27T11:38:09.719Z,33.10
2018-07-27T11:40:39.902Z,33.20
2018-07-27T11:43:09.726Z,33.20
2018-07-27T11:45:39.530Z,33.40
2018-07-27T11:48:09.410Z,33.50
2018-07-27T11:50:39.238Z,33.60
2018-07-27T11:53:09.079Z,33.60
2018-07-27T11:55:38.902Z,33.60
2018-07-27T11:58:08.734Z,33.60
2018-07-27T12:00:38.550Z,33.70
2018-07-27T12:03:08.384Z,33.70
2018-07-27T12:05:38.199Z,33.80
2018-07-27T12:08:08.384Z,33.80
2018-07-27T12:10:38.258Z,33.80
2018-07-27T12:13:08.130Z,33.80
2018-07-27T12:15:37.955Z,33.80
2018-07-27T12:18:07.795Z,33.80
2018-07-27T12:20:37.690Z,33.80
2018-07-27T12:23:07.618Z,33.90
2018-07-27T12:25:37.463Z,34.00
2018-07-27T12:28:07.277Z,34.10
2018-07-27T12:30:37.319Z,34.10
2018-07-27T12:33:07.253Z,34.20
2018-07-27T12:35:37.115Z,34.20
2018-07-27T12:38:06.942Z,34.20
2018-07-27T12:40:36.810Z,34.20
2018-07-27T12:43:07.117Z,34.20
2018-07-27T12:45:37.498Z,34.30
2018-07-27T12:48:07.338Z,34.20
2018-07-27T12:50:37.211Z,34.10
2018-07-27T12:53:07.034Z,34.10
2018-07-27T12:55:36.874Z,34.10
2018-07-27T12:58:06.678Z,34.10
2018-07-27T13:00:36.871Z,34.20
2018-07-27T13:03:06.922Z,34.30
2018-07-27T13:05:36.801Z,34.30
2018-07-27T13:08:06.810Z,34.40
2018-07-27T13:10:37.349Z,34.40
2018-07-27T13:15:36.823Z,34.40
2018-07-27T13:18:06.635Z,34.50
2018-07-27T13:20:53.614Z,34.60
2018-07-27T13:23:23.901Z,34.60
2018-07-27T13:28:35.199Z,34.70
2018-07-27T13:31:05.382Z,34.70
2018-07-27T13:33:35.454Z,34.70
2018-07-27T13:36:05.367Z,34.70
2018-07-27T13:38:35.191Z,34.80
2018-07-27T13:41:04.992Z,34.90
2018-07-27T13:43:34.832Z,34.90
2018-07-27T13:46:04.682Z,35.00
2018-07-27T13:48:34.530Z,35.10
2018-07-27T13:51:04.730Z,35.10
2018-07-27T13:53:34.578Z,35.10
2018-07-27T13:56:04.386Z,35.10
2018-07-27T13:58:34.234Z,35.00
2018-07-27T14:01:04.102Z,35.00
2018-07-27T14:03:33.938Z,34.90
2018-07-27T14:06:03.808Z,34.90
2018-07-27T14:08:33.838Z,34.90
2018-07-27T14:11:03.695Z,34.90
2018-07-27T14:13:33.585Z,34.90
2018-07-27T14:16:03.606Z,35.00
2018-07-27T14:18:33.822Z,35.00
2018-07-27T14:21:03.975Z,35.00
2018-07-27T14:23:33.794Z,35.00
2018-07-27T14:26:03.627Z,35.00
2018-07-27T14:28:33.431Z,35.00
2018-07-27T14:31:03.299Z,35.00
2018-07-27T14:33:33.103Z,35.00
2018-07-27T14:36:02.946Z,35.00
2018-07-27T14:38:32.758Z,35.00
2018-07-27T14:41:02.616Z,35.00
2018-07-27T14:43:32.438Z,35.00
2018-07-27T14:46:02.278Z,35.00
2018-07-27T14:48:32.134Z,35.00
2018-07-27T14:51:02.363Z,35.00
2018-07-27T14:53:32.515Z,34.90
2018-07-27T14:56:02.327Z,34.90
2018-07-27T14:58:32.171Z,34.90
2018-07-27T15:01:02.009Z,34.90
2018-07-27T15:03:32.377Z,34.80
2018-07-27T15:08:31.639Z,34.70
2018-07-27T15:11:01.438Z,34.70
2018-07-27T15:13:31.470Z,34.70
2018-07-27T15:16:01.620Z,34.60
2018-07-27T15:18:31.451Z,34.50
2018-07-27T15:21:01.254Z,34.50
2018-07-27T15:23:31.082Z,34.40
2018-07-27T15:26:00.890Z,34.50
2018-07-27T15:28:30.718Z,34.50
2018-07-27T15:31:00.566Z,34.50
2018-07-27T15:33:30.786Z,34.50
2018-07-27T15:36:00.638Z,34.50
2018-07-27T15:38:30.478Z,34.50
2018-07-27T15:41:00.419Z,34.40
2018-07-27T15:43:30.646Z,34.40
2018-07-27T15:46:00.459Z,34.40
2018-07-27T15:48:33.338Z,34.30
2018-07-27T15:51:03.374Z,34.40
2018-07-27T15:53:33.179Z,34.30
2018-07-27T15:58:32.466Z,34.20
2018-07-27T16:01:02.296Z,34.20
2018-07-27T16:03:32.146Z,34.20
2018-07-27T16:06:02.014Z,34.20
2018-07-27T16:08:31.852Z,34.10
2018-07-27T16:11:01.655Z,34.10
2018-07-27T16:13:31.494Z,34.10
2018-07-27T16:16:01.304Z,34.10
2018-07-27T16:18:31.351Z,34.10
2018-07-27T16:21:01.783Z,34.10
2018-07-27T16:23:31.617Z,34.00
2018-07-27T16:26:01.495Z,34.00
2018-07-27T16:28:31.447Z,33.90
2018-07-27T16:31:01.611Z,33.90
2018-07-27T16:33:31.799Z,33.80
2018-07-27T16:36:01.846Z,33.80
2018-07-27T16:38:31.654Z,33.80
2018-07-27T16:41:01.503Z,33.80
2018-07-27T16:46:00.790Z,33.70
2018-07-27T16:48:30.627Z,33.70
2018-07-27T16:51:00.864Z,33.60
2018-07-27T16:53:30.666Z,33.50
2018-07-27T16:56:00.466Z,33.40
2018-07-27T16:58:30.304Z,33.40
2018-07-27T17:01:00.455Z,33.40
2018-07-27T17:03:30.283Z,33.30
2018-07-27T17:06:00.080Z,33.40
2018-07-27T17:08:30.414Z,33.30
2018-07-27T17:11:00.211Z,33.30
2018-07-27T17:13:30.443Z,33.30
2018-07-27T17:16:00.419Z,33.40
2018-07-27T17:18:30.978Z,33.40
2018-07-27T17:23:30.263Z,33.30
2018-07-27T17:26:00.489Z,33.30
2018-07-27T17:28:30.514Z,33.30
2018-07-27T17:31:00.539Z,33.30
2018-07-27T17:33:30.368Z,33.20
2018-07-27T17:36:00.234Z,33.20
2018-07-27T17:38:30.605Z,33.10
2018-07-27T17:41:00.465Z,33.10
2018-07-27T17:43:30.295Z,33.00
2018-07-27T17:46:00.132Z,32.90
2018-07-27T17:48:29.967Z,32.90
2018-07-27T17:50:59.858Z,32.80
2018-07-27T17:53:30.035Z,32.70
2018-07-27T17:56:00.091Z,32.70
2018-07-27T17:58:29.897Z,32.60
2018-07-27T18:01:01.428Z,32.50
2018-07-27T18:03:31.410Z,32.40
2018-07-27T18:06:01.288Z,32.40
2018-07-27T18:08:31.108Z,32.40
2018-07-27T18:11:01.983Z,32.30
2018-07-27T18:13:32.485Z,32.10
2018-07-27T18:16:03.452Z,32.10
2018-07-27T18:18:34.294Z,32.00
2018-07-27T18:21:05.518Z,31.90
2018-07-27T18:23:36.292Z,31.80
2018-07-27T18:26:08.025Z,31.70
2018-07-27T18:28:38.254Z,31.60
2018-07-27T18:31:08.410Z,31.50
2018-07-27T18:33:38.267Z,31.50
2018-07-27T18:36:08.210Z,31.40
2018-07-27T18:38:38.598Z,31.20
2018-07-27T18:41:08.409Z,31.20
2018-07-27T18:43:38.826Z,31.10
2018-07-27T18:46:09.027Z,31.00
2018-07-27T18:48:39.262Z,30.90
2018-07-27T18:51:09.126Z,30.80
2018-07-27T18:53:39.166Z,30.70
2018-07-27T18:56:09.013Z,30.60
2018-07-27T18:58:38.818Z,30.50
2018-07-27T19:01:09.192Z,30.40
2018-07-27T19:03:39.550Z,30.20
2018-07-27T19:06:09.379Z,30.10
2018-07-27T19:08:39.559Z,30.10
2018-07-27T19:11:09.615Z,30.00
2018-07-27T19:13:39.570Z,29.80
2018-07-27T19:16:10.178Z,29.70
2018-07-27T19:18:43.206Z,29.60
2018-07-27T19:21:15.905Z,29.50
2018-07-27T19:23:48.740Z,29.40
2018-07-27T19:26:25.973Z,29.30
2018-07-27T19:29:01.029Z,29.20
2018-07-27T19:31:32.717Z,29.20
2018-07-27T19:36:39.617Z,29.00
2018-07-27T19:42:18.571Z,28.80
2018-07-27T19:44:49.636Z,28.70
2018-07-27T19:47:19.537Z,28.60
2018-07-27T19:49:49.518Z,28.50
2018-07-27T19:52:19.479Z,28.40
2018-07-27T19:54:49.714Z,28.40
2018-07-27T19:57:19.636Z,28.40
2018-07-27T19:59:49.503Z,28.30
2018-07-27T20:02:19.862Z,28.30
2018-07-27T20:07:20.363Z,28.10
2018-07-27T20:09:50.194Z,28.10
2018-07-27T20:12:20.496Z,28.00
2018-07-27T20:14:51.318Z,27.90
2018-07-27T20:17:21.196Z,27.80
2018-07-27T20:19:52.067Z,27.80
2018-07-27T20:22:22.283Z,27.60
2018-07-27T20:24:52.271Z,27.50
2018-07-27T20:27:22.868Z,27.40
2018-07-27T20:29:53.023Z,27.30
2018-07-27T20:32:23.283Z,27.20
2018-07-27T20:34:53.202Z,27.10
2018-07-27T20:37:23.278Z,27.10
2018-07-27T20:39:53.384Z,26.90
2018-07-27T20:42:23.248Z,26.90
2018-07-27T20:44:53.110Z,26.80
2018-07-27T20:47:23.929Z,26.80
2018-07-27T20:49:53.816Z,26.70
2018-07-27T20:52:23.731Z,26.60
2018-07-27T20:54:53.942Z,26.60
2018-07-27T20:57:25.634Z,26.50
2018-07-27T20:59:55.715Z,26.50
2018-07-27T21:02:25.570Z,26.40
2018-07-27T21:04:55.867Z,26.30
2018-07-27T21:07:26.254Z,26.30
2018-07-27T21:09:56.140Z,26.30
2018-07-27T21:12:26.499Z,26.20
2018-07-27T21:14:56.359Z,26.20
2018-07-27T21:17:26.170Z,26.10
2018-07-27T21:19:56.854Z,26.00
2018-07-27T21:22:27.071Z,25.90
2018-07-27T21:24:57.127Z,25.90
2018-07-27T21:27:26.950Z,25.90
2018-07-27T21:29:56.794Z,25.80
2018-07-27T21:32:27.083Z,25.80
2018-07-27T21:34:58.039Z,25.80
2018-07-27T21:37:28.271Z,25.70
2018-07-27T21:39:58.122Z,25.60
2018-07-27T21:42:27.990Z,25.60
2018-07-27T21:44:57.846Z,25.60
2018-07-27T21:47:27.650Z,25.60
2018-07-27T21:49:57.494Z,25.50
2018-07-27T21:52:27.506Z,25.50
2018-07-27T21:54:57.341Z,25.40
2018-07-27T21:57:27.522Z,25.40
2018-07-27T21:59:57.373Z,25.40
2018-07-27T22:02:27.205Z,25.30
2018-07-27T22:04:58.238Z,25.20
2018-07-27T22:07:28.086Z,25.20
2018-07-27T22:09:58.238Z,25.10
2018-07-27T22:12:28.230Z,25.00
2018-07-27T22:14:58.067Z,25.00
2018-07-27T22:17:27.959Z,24.90
2018-07-27T22:19:57.978Z,24.90
2018-07-27T22:22:27.832Z,24.80
2018-07-27T22:24:58.301Z,24.80
2018-07-27T22:27:34.935Z,24.80
2018-07-27T22:30:06.986Z,24.80
2018-07-27T22:32:36.843Z,24.70
2018-07-27T22:35:07.166Z,24.70
2018-07-27T22:37:38.135Z,24.70
2018-07-27T22:40:10.070Z,24.60
2018-07-27T22:42:40.418Z,24.60
2018-07-27T22:45:10.871Z,24.60
2018-07-27T22:47:40.726Z,24.50
2018-07-27T22:50:11.986Z,24.50
2018-07-27T22:52:41.946Z,24.40
2018-07-27T22:55:12.846Z,24.40
2018-07-27T22:57:43.306Z,24.30
2018-07-27T23:00:14.528Z,24.30
2018-07-27T23:02:44.474Z,24.30
2018-07-27T23:05:14.286Z,24.30
2018-07-27T23:07:44.142Z,24.20
2018-07-27T23:10:13.958Z,24.20
2018-07-27T23:12:43.851Z,24.10
2018-07-27T23:15:13.695Z,24.10
2018-07-27T23:17:44.218Z,24.10
2018-07-27T23:20:14.788Z,24.10
2018-07-27T23:22:44.621Z,24.10
2018-07-27T23:25:15.338Z,24.10
2018-07-27T23:27:45.176Z,24.10
2018-07-27T23:30:15.017Z,24.10
2018-07-27T23:32:44.838Z,24.10
2018-07-27T23:35:14.702Z,24.20
2018-07-27T23:37:44.555Z,24.20
2018-07-27T23:40:14.402Z,24.10
2018-07-27T23:42:44.238Z,24.10
2018-07-27T23:45:14.075Z,24.10
2018-07-27T23:47:43.958Z,24.00
2018-07-27T23:50:13.803Z,24.10
2018-07-27T23:52:43.638Z,24.10
2018-07-27T23:55:13.862Z,24.10
2018-07-27T23:57:44.050Z,24.10
